createdAt,value
2023-03-23T16:00:14.783Z,3.93
2023-03-23T16:02:44.055Z,3.83
2023-03-23T16:05:14.633Z,2.80
2023-03-23T16:07:42.982Z,2.87
2023-03-23T16:10:18.240Z,3.27
2023-03-23T16:12:46.575Z,2.77
2023-03-23T16:15:15.720Z,2.60
2023-03-23T16:17:44.672Z,2.87
2023-03-23T16:20:16.814Z,2.20
2023-03-23T16:22:45.445Z,2.50
2023-03-23T16:25:14.671Z,2.10
2023-03-23T16:27:43.806Z,2.43
2023-03-23T16:30:17.095Z,2.57
2023-03-23T16:32:46.862Z,2.40
2023-03-23T16:35:17.303Z,2.37
2023-03-23T16:37:49.147Z,2.33
2023-03-23T16:40:18.681Z,2.47
2023-03-23T16:42:47.092Z,2.70
2023-03-23T16:45:16.531Z,2.20
2023-03-23T16:47:45.729Z,2.50
2023-03-23T16:50:17.063Z,3.27
2023-03-23T16:52:47.728Z,2.53
2023-03-23T16:55:18.018Z,2.60
2023-03-23T16:57:46.265Z,2.50
2023-03-23T17:00:20.295Z,3.10
2023-03-23T17:02:49.485Z,2.80
2023-03-23T17:05:20.407Z,2.63
2023-03-23T17:07:49.089Z,3.17
2023-03-23T17:10:18.292Z,3.13
2023-03-23T17:12:46.510Z,3.20
2023-03-23T17:15:14.918Z,2.90
2023-03-23T17:17:43.292Z,3.57
2023-03-23T17:20:12.425Z,3.47
2023-03-23T17:22:42.451Z,3.33
2023-03-23T17:25:11.464Z,2.80
2023-03-23T17:27:40.579Z,3.00
2023-03-23T17:30:10.903Z,3.33
2023-03-23T17:32:39.963Z,3.43
2023-03-23T17:35:08.929Z,3.87
2023-03-23T17:37:39.653Z,3.13
2023-03-23T17:40:11.132Z,3.20
2023-03-23T17:42:41.606Z,3.80
2023-03-23T17:45:13.887Z,4.13
2023-03-23T17:47:42.581Z,3.50
2023-03-23T17:50:12.689Z,3.90
2023-03-23T17:52:41.709Z,3.80
2023-03-23T17:55:12.019Z,3.83
2023-03-23T17:57:40.437Z,3.73
2023-03-23T18:00:10.131Z,3.53
2023-03-23T18:02:39.096Z,3.90
2023-03-23T18:05:09.846Z,3.70
2023-03-23T18:07:38.354Z,3.50
2023-03-23T18:10:12.110Z,3.73
2023-03-23T18:12:42.991Z,4.00
2023-03-23T18:15:12.325Z,3.33
2023-03-23T18:17:40.859Z,3.73
2023-03-23T18:20:10.598Z,4.17
2023-03-23T18:22:39.111Z,3.90
2023-03-23T18:25:08.191Z,4.20
2023-03-23T18:27:36.762Z,3.93
2023-03-23T18:30:07.373Z,3.60
2023-03-23T18:32:37.282Z,4.00
2023-03-23T18:35:06.632Z,3.63
2023-03-23T18:37:35.947Z,3.43
2023-03-23T18:40:06.343Z,3.60
2023-03-23T18:42:34.499Z,4.77
2023-03-23T18:45:02.854Z,4.23
2023-03-23T18:47:32.766Z,3.87
2023-03-23T18:50:01.523Z,3.90
2023-03-23T18:52:31.002Z,4.30
2023-03-23T18:54:59.515Z,4.27
2023-03-23T18:57:27.967Z,4.43
2023-03-23T18:59:56.429Z,4.50
2023-03-23T19:02:24.855Z,4.47
2023-03-23T19:04:54.469Z,4.37
2023-03-23T19:07:22.603Z,4.30
2023-03-23T19:09:51.352Z,4.00
2023-03-23T19:12:19.744Z,4.13
2023-03-23T19:14:47.919Z,4.00
2023-03-23T19:17:17.895Z,3.57
2023-03-23T19:20:14.562Z,3.97
2023-03-23T19:22:45.779Z,3.40
2023-03-23T19:25:14.262Z,3.97
2023-03-23T19:28:18.239Z,3.47
2023-03-23T19:30:31.820Z,4.07
2023-03-23T19:33:00.196Z,4.00
2023-03-23T19:35:30.093Z,3.20
2023-03-23T19:37:59.518Z,3.53
2023-03-23T19:43:01.202Z,3.60
2023-03-23T19:45:29.648Z,3.43
2023-03-23T19:47:57.987Z,3.13
2023-03-23T19:50:27.093Z,3.67
2023-03-23T19:52:58.639Z,3.37
2023-03-23T19:55:28.789Z,3.57
2023-03-23T19:57:57.301Z,3.40
2023-03-23T20:00:25.469Z,3.20
2023-03-23T20:02:54.637Z,3.50
2023-03-23T20:05:22.998Z,3.47
2023-03-23T20:07:52.050Z,3.00
2023-03-23T20:10:22.299Z,3.43
2023-03-23T20:12:50.543Z,3.20
2023-03-23T20:15:19.609Z,3.60
2023-03-23T20:17:49.928Z,3.30
2023-03-23T20:20:19.828Z,3.70
2023-03-23T20:22:50.817Z,2.90
2023-03-23T20:25:22.683Z,3.37
2023-03-23T20:27:51.234Z,2.70
2023-03-23T20:30:20.474Z,2.90
2023-03-23T20:32:48.939Z,3.00
2023-03-23T20:35:17.214Z,2.90
2023-03-23T20:37:45.317Z,3.40
2023-03-23T20:40:15.520Z,2.43
2023-03-23T20:42:45.372Z,2.83
2023-03-23T20:45:14.310Z,3.30
2023-03-23T20:47:43.117Z,3.10
2023-03-23T20:50:12.402Z,3.07
2023-03-23T20:52:41.746Z,3.83
2023-03-23T20:55:11.157Z,3.23
2023-03-23T20:57:40.546Z,3.67
2023-03-23T21:00:16.516Z,3.13
2023-03-23T21:02:45.360Z,3.73
2023-03-23T21:05:13.604Z,3.50
2023-03-23T21:07:42.886Z,3.80
2023-03-23T21:10:11.042Z,3.37
2023-03-23T21:12:39.437Z,3.23
2023-03-23T21:15:10.205Z,3.43
2023-03-23T21:17:38.589Z,3.27
2023-03-23T21:20:07.869Z,3.37
2023-03-23T21:22:36.300Z,3.00
2023-03-23T21:25:05.164Z,2.80
2023-03-23T21:27:33.420Z,3.27
2023-03-23T21:30:01.728Z,2.93
2023-03-23T21:32:31.396Z,2.97
2023-03-23T21:35:02.882Z,2.93
2023-03-23T21:37:31.241Z,2.90
2023-03-23T21:40:00.193Z,2.87
2023-03-23T21:42:31.213Z,3.07
2023-03-23T21:45:02.704Z,2.90
2023-03-23T21:47:33.049Z,3.20
2023-03-23T21:50:02.031Z,3.17
2023-03-23T21:52:31.113Z,3.10
2023-03-23T21:54:59.689Z,3.13
2023-03-23T21:57:28.609Z,3.40
2023-03-23T21:59:57.028Z,2.37
2023-03-23T22:02:25.904Z,2.83
2023-03-23T22:04:57.599Z,2.90
2023-03-23T22:07:27.928Z,3.07
2023-03-23T22:09:57.634Z,3.00
2023-03-23T22:12:26.320Z,2.87
2023-03-23T22:14:54.659Z,3.13
2023-03-23T22:17:23.133Z,3.10
2023-03-23T22:19:51.446Z,3.00
2023-03-23T22:22:21.428Z,3.17
2023-03-23T22:24:49.780Z,3.00
2023-03-23T22:27:18.382Z,2.90
2023-03-23T22:29:46.991Z,3.37
2023-03-23T22:32:16.044Z,2.90
2023-03-23T22:34:44.340Z,2.80
2023-03-23T22:37:12.549Z,3.53
2023-03-23T22:39:42.437Z,3.60
2023-03-23T22:42:12.358Z,3.23
2023-03-23T22:44:41.811Z,3.47
2023-03-23T22:47:10.196Z,2.87
2023-03-23T22:49:38.480Z,3.83
2023-03-23T22:52:06.919Z,2.90
2023-03-23T22:54:35.288Z,3.17
2023-03-23T22:57:05.418Z,3.20
2023-03-23T22:59:34.171Z,3.40
2023-03-23T23:02:02.536Z,3.17
2023-03-23T23:04:31.221Z,3.23
2023-03-23T23:07:10.395Z,3.50
2023-03-23T23:09:41.824Z,3.23
2023-03-23T23:12:12.683Z,2.67
2023-03-23T23:14:43.247Z,3.40
2023-03-23T23:17:11.824Z,3.00
2023-03-23T23:19:40.237Z,3.03
2023-03-23T23:22:18.442Z,3.00
2023-03-23T23:24:47.360Z,3.00
2023-03-23T23:27:18.063Z,2.53
2023-03-23T23:29:46.493Z,2.60
2023-03-23T23:32:15.058Z,2.87
2023-03-23T23:34:43.412Z,2.73
2023-03-23T23:37:11.699Z,2.60
2023-03-23T23:39:41.431Z,2.50
2023-03-23T23:42:09.778Z,2.43
2023-03-23T23:44:39.807Z,2.77
2023-03-23T23:47:08.635Z,2.80
2023-03-23T23:49:37.083Z,2.87
2023-03-23T23:52:07.057Z,3.00
2023-03-23T23:54:36.950Z,2.43
2023-03-23T23:57:06.391Z,2.63
2023-03-23T23:59:34.671Z,2.90
